createdAt,value
2018-09-24T00:00:47.114Z,1999.90
2018-09-24T00:03:15.001Z,1999.90
2018-09-24T00:05:42.875Z,1999.90
2018-09-24T00:08:10.720Z,1999.90
2018-09-24T00:10:38.616Z,1999.90
2018-09-24T00:13:06.524Z,1999.90
2018-09-24T00:15:34.395Z,1999.90
2018-09-24T00:18:02.298Z,1999.90
2018-09-24T00:20:30.203Z,1999.90
2018-09-24T00:22:58.094Z,1999.90
2018-09-24T00:25:25.989Z,1999.90
2018-09-24T00:27:54.381Z,1999.90
2018-09-24T00:30:22.273Z,1999.90
2018-09-24T00:32:50.150Z,1999.90
2018-09-24T00:35:18.023Z,1999.90
2018-09-24T00:37:45.884Z,1999.90
2018-09-24T00:40:13.752Z,1999.90
2018-09-24T00:42:41.994Z,1988.03
2018-09-24T00:45:09.852Z,1999.90
2018-09-24T00:47:37.724Z,1999.90
2018-09-24T00:50:05.661Z,1999.90
2018-09-24T00:52:33.537Z,1999.90
2018-09-24T00:55:01.466Z,1999.90
2018-09-24T00:57:29.345Z,1999.90
2018-09-24T00:59:57.243Z,1999.90
2018-09-24T01:02:25.114Z,1999.90
2018-09-24T01:04:52.995Z,1999.90
2018-09-24T01:07:20.850Z,1999.90
2018-09-24T01:09:48.725Z,1999.90
2018-09-24T01:12:16.733Z,1999.90
2018-09-24T01:14:44.607Z,1999.90
2018-09-24T01:17:12.463Z,1999.90
2018-09-24T01:19:40.343Z,1999.90
2018-09-24T01:22:08.225Z,1999.90
2018-09-24T01:24:36.278Z,1999.90
2018-09-24T01:27:04.153Z,1999.90
2018-09-24T01:29:32.039Z,1999.90
2018-09-24T01:31:59.953Z,1999.90
2018-09-24T01:34:27.848Z,1999.90
2018-09-24T01:36:55.743Z,1999.90
2018-09-24T01:39:23.599Z,1999.90
2018-09-24T01:41:51.465Z,1999.90
2018-09-24T01:44:19.350Z,1999.90
2018-09-24T01:46:47.225Z,1999.90
2018-09-24T01:49:15.100Z,1999.90
2018-09-24T01:51:43.018Z,1999.90
2018-09-24T01:54:10.883Z,1999.90
2018-09-24T01:56:38.757Z,1999.90
2018-09-24T01:59:06.730Z,1999.90
2018-09-24T02:01:34.632Z,1999.90
2018-09-24T02:04:02.495Z,1999.90
2018-09-24T02:06:30.358Z,1999.90
2018-09-24T02:08:58.232Z,1999.90
2018-09-24T02:11:26.104Z,1999.90
2018-09-24T02:13:53.972Z,1999.90
2018-09-24T02:16:21.826Z,1999.90
2018-09-24T02:18:50.074Z,1999.90
2018-09-24T02:21:18.314Z,1999.90
2018-09-24T02:23:46.207Z,1999.90
2018-09-24T02:26:14.075Z,1999.90
2018-09-24T02:28:41.929Z,1999.90
2018-09-24T02:31:09.883Z,1999.90
2018-09-24T02:33:37.762Z,1999.90
2018-09-24T02:36:05.647Z,1999.90
2018-09-24T02:38:37.661Z,1999.90
2018-09-24T02:41:05.534Z,1999.90
2018-09-24T02:43:33.394Z,1999.90
2018-09-24T02:46:01.267Z,1999.90
2018-09-24T02:48:29.144Z,1999.90
2018-09-24T02:50:57.090Z,1999.90
2018-09-24T02:53:24.966Z,1999.90
2018-09-24T02:55:52.851Z,1999.90
2018-09-24T02:58:21.543Z,1999.90
2018-09-24T03:00:49.746Z,1999.90
2018-09-24T03:03:17.598Z,1999.90
2018-09-24T03:05:45.562Z,1999.90
2018-09-24T03:08:14.269Z,1999.90
2018-09-24T03:10:42.516Z,1999.90
2018-09-24T03:13:10.363Z,1999.90
2018-09-24T03:15:38.790Z,1999.90
2018-09-24T03:18:07.540Z,1999.90
2018-09-24T03:20:36.730Z,1999.90
2018-09-24T03:23:04.911Z,1999.90
2018-09-24T03:25:32.760Z,1999.90
2018-09-24T03:28:01.857Z,1999.90
2018-09-24T03:30:35.568Z,1999.90
2018-09-24T03:33:03.694Z,1999.90
2018-09-24T03:35:32.023Z,1999.90
2018-09-24T03:37:59.907Z,1999.90
2018-09-24T03:40:27.758Z,1999.90
2018-09-24T03:42:56.652Z,1999.90
2018-09-24T03:45:24.555Z,1999.90
2018-09-24T03:47:52.588Z,1999.90
2018-09-24T03:50:20.463Z,1999.90
2018-09-24T03:52:48.324Z,1999.90
2018-09-24T03:55:16.175Z,1999.90
2018-09-24T03:57:44.074Z,1999.90
2018-09-24T04:00:12.229Z,1999.90
2018-09-24T04:02:40.639Z,1999.90
2018-09-24T04:05:14.055Z,1999.90
2018-09-24T04:07:47.531Z,1999.90
2018-09-24T04:10:21.043Z,1999.90
2018-09-24T04:12:54.539Z,1999.90
2018-09-24T04:15:27.849Z,1999.90
2018-09-24T04:18:01.375Z,1999.90
2018-09-24T04:20:34.721Z,1999.90
2018-09-24T04:23:08.029Z,1999.90
2018-09-24T04:25:41.534Z,1999.90
2018-09-24T04:28:15.014Z,1999.90
2018-09-24T04:30:48.414Z,1999.90
2018-09-24T04:33:21.874Z,1999.90
2018-09-24T04:35:55.303Z,1999.90
2018-09-24T04:38:28.819Z,1999.90
2018-09-24T04:41:02.210Z,1999.90
2018-09-24T04:43:35.578Z,1999.90
2018-09-24T04:46:08.973Z,1999.90
2018-09-24T04:48:42.455Z,1999.90
2018-09-24T04:51:15.870Z,1936.87
2018-09-24T04:53:49.367Z,1999.90
2018-09-24T04:56:22.889Z,1984.43
2018-09-24T04:58:56.399Z,1999.90
2018-09-24T05:01:29.953Z,1999.90
2018-09-24T05:04:03.388Z,1999.90
2018-09-24T05:06:36.714Z,1962.83
2018-09-24T05:09:11.695Z,1878.40
2018-09-24T05:11:45.226Z,1981.07
2018-09-24T05:14:18.619Z,1999.90
2018-09-24T05:16:52.127Z,1839.20
2018-09-24T05:19:25.631Z,1944.57
2018-09-24T05:21:59.286Z,1951.43
2018-09-24T05:24:32.808Z,1943.40
2018-09-24T05:27:06.290Z,1929.33
2018-09-24T05:29:39.639Z,1847.70
2018-09-24T05:32:13.043Z,1999.90
2018-09-24T05:34:46.528Z,1979.43
2018-09-24T05:37:20.110Z,1858.50
2018-09-24T05:39:53.482Z,1999.90
2018-09-24T05:42:26.991Z,1742.37
2018-09-24T05:45:00.482Z,1976.87
2018-09-24T05:47:33.945Z,1842.50
2018-09-24T05:50:07.314Z,1956.97
2018-09-24T05:52:40.894Z,1974.77
2018-09-24T05:55:14.349Z,1825.10
2018-09-24T05:57:47.734Z,1741.53
2018-09-24T06:00:21.252Z,1425.60
2018-09-24T06:02:54.719Z,801.80
2018-09-24T06:05:28.138Z,983.30
2018-09-24T06:08:01.463Z,1234.33
2018-09-24T06:10:34.951Z,1424.13
2018-09-24T06:13:08.249Z,847.57
2018-09-24T06:15:41.618Z,672.33
2018-09-24T06:18:15.142Z,989.43
2018-09-24T06:20:48.578Z,961.70
2018-09-24T06:23:22.062Z,839.40
2018-09-24T06:25:55.430Z,786.10
2018-09-24T06:28:28.962Z,954.40
2018-09-24T06:31:02.247Z,890.07
2018-09-24T06:33:35.611Z,1765.20
2018-09-24T06:36:09.159Z,1041.93
2018-09-24T06:38:42.567Z,1167.37
2018-09-24T06:41:16.062Z,1650.17
2018-09-24T06:43:49.471Z,1137.43
2018-09-24T06:46:22.943Z,1817.17
2018-09-24T06:48:56.420Z,1085.33
2018-09-24T06:51:29.779Z,1145.80
2018-09-24T06:54:03.239Z,1397.87
2018-09-24T06:56:36.739Z,1426.90
2018-09-24T06:59:10.091Z,1872.03
2018-09-24T07:01:43.491Z,1608.27
2018-09-24T07:04:16.990Z,1832.67
2018-09-24T07:06:50.319Z,989.10
2018-09-24T07:09:23.697Z,1178.97
2018-09-24T07:11:57.150Z,1435.27
2018-09-24T07:14:30.658Z,1817.83
2018-09-24T07:17:04.183Z,1499.47
2018-09-24T07:19:37.720Z,1314.63
2018-09-24T07:22:11.258Z,1741.33
2018-09-24T07:24:44.695Z,1800.30
2018-09-24T07:27:18.042Z,1339.27
2018-09-24T07:29:51.590Z,1655.60
2018-09-24T07:32:25.055Z,766.07
2018-09-24T07:34:58.464Z,1999.90
2018-09-24T07:37:31.884Z,1024.50
2018-09-24T07:40:05.347Z,1543.07
2018-09-24T07:42:38.785Z,688.30
2018-09-24T07:45:12.254Z,1999.90
2018-09-24T07:47:45.798Z,1230.07
2018-09-24T07:50:19.136Z,1365.23
2018-09-24T07:52:52.506Z,1689.90
2018-09-24T07:55:26.007Z,1005.27
2018-09-24T07:57:59.515Z,1886.60
2018-09-24T08:00:32.990Z,1983.07
2018-09-24T08:03:06.386Z,1959.37
2018-09-24T08:05:39.926Z,839.33
2018-09-24T08:08:13.494Z,1999.90
2018-09-24T08:10:47.043Z,1751.63
2018-09-24T08:13:20.720Z,831.80
2018-09-24T08:15:54.014Z,1717.73
2018-09-24T08:18:27.380Z,608.30
2018-09-24T08:21:00.760Z,346.17
2018-09-24T08:23:34.121Z,1008.80
2018-09-24T08:26:07.530Z,1376.67
2018-09-24T08:28:40.958Z,748.97
2018-09-24T08:31:14.495Z,536.10
2018-09-24T08:33:47.955Z,912.93
2018-09-24T08:36:21.506Z,980.27
2018-09-24T08:38:54.981Z,1639.60
2018-09-24T08:41:28.498Z,192.53
2018-09-24T08:44:02.055Z,1192.20
2018-09-24T08:46:35.455Z,839.77
2018-09-24T08:49:08.935Z,374.27
2018-09-24T08:51:42.290Z,916.83
2018-09-24T08:54:15.758Z,607.30
2018-09-24T08:56:49.196Z,612.33
2018-09-24T08:59:22.494Z,1999.90
2018-09-24T09:01:55.970Z,399.50
2018-09-24T09:04:29.446Z,592.57
2018-09-24T09:07:02.794Z,710.73
2018-09-24T09:09:36.160Z,1455.93
2018-09-24T09:12:09.569Z,1324.27
2018-09-24T09:14:43.067Z,985.10
2018-09-24T09:17:16.571Z,388.00
2018-09-24T09:19:50.051Z,434.27
2018-09-24T09:22:23.512Z,1000.23
2018-09-24T09:24:57.062Z,127.27
2018-09-24T09:27:30.416Z,1948.10
2018-09-24T09:30:03.932Z,235.03
2018-09-24T09:32:37.410Z,117.07
2018-09-24T09:35:10.813Z,94.37
2018-09-24T09:37:44.282Z,166.00
2018-09-24T09:40:17.645Z,175.23
2018-09-24T09:42:51.103Z,367.13
2018-09-24T09:45:24.579Z,78.77
2018-09-24T09:47:57.973Z,193.80
2018-09-24T09:50:31.515Z,178.57
2018-09-24T09:53:04.942Z,98.30
2018-09-24T09:55:38.418Z,364.47
2018-09-24T09:58:11.756Z,99.77
2018-09-24T10:00:45.023Z,276.00
2018-09-24T10:03:18.432Z,169.30
2018-09-24T10:05:51.960Z,306.37
2018-09-24T10:08:25.490Z,603.47
2018-09-24T10:10:58.854Z,88.57
2018-09-24T10:13:32.318Z,69.90
2018-09-24T10:16:05.634Z,1499.27
2018-09-24T10:18:39.127Z,767.73
2018-09-24T10:21:12.678Z,96.63
2018-09-24T10:23:46.190Z,1582.70
2018-09-24T10:26:19.706Z,308.13
2018-09-24T10:28:53.219Z,114.03
2018-09-24T10:31:26.681Z,84.00
2018-09-24T10:34:00.020Z,448.53
2018-09-24T10:36:33.495Z,400.17
2018-09-24T10:39:06.958Z,732.67
2018-09-24T10:41:40.330Z,1440.17
2018-09-24T10:44:13.718Z,1999.90
2018-09-24T10:46:47.212Z,1851.50
2018-09-24T10:49:20.747Z,1689.27
2018-09-24T10:51:54.175Z,564.37
2018-09-24T10:54:27.675Z,95.40
2018-09-24T10:57:01.161Z,139.67
2018-09-24T10:59:34.576Z,162.67
2018-09-24T11:02:07.941Z,161.80
2018-09-24T11:04:41.282Z,271.70
2018-09-24T11:07:14.614Z,669.93
2018-09-24T11:09:48.067Z,738.07
2018-09-24T11:12:21.443Z,237.27
2018-09-24T11:14:54.755Z,339.80
2018-09-24T11:17:28.346Z,922.40
2018-09-24T11:20:01.630Z,342.00
2018-09-24T11:22:34.929Z,66.67
2018-09-24T11:25:08.258Z,194.23
2018-09-24T11:27:41.628Z,223.97
2018-09-24T11:30:15.005Z,81.90
2018-09-24T11:32:48.512Z,71.77
2018-09-24T11:35:21.972Z,78.30
2018-09-24T11:37:55.325Z,60.50
2018-09-24T11:40:28.827Z,69.93
2018-09-24T11:43:02.267Z,80.33
2018-09-24T11:45:35.739Z,55.60
2018-09-24T11:48:09.121Z,65.53
2018-09-24T11:50:42.650Z,825.47
2018-09-24T11:53:15.975Z,57.90
2018-09-24T11:55:49.383Z,59.80
2018-09-24T11:58:22.762Z,72.20
2018-09-24T12:00:56.238Z,59.50
2018-09-24T12:03:29.563Z,68.97
2018-09-24T12:06:02.995Z,58.23
2018-09-24T12:08:36.417Z,960.80
2018-09-24T12:11:09.937Z,1999.90
2018-09-24T12:13:43.382Z,1906.20
2018-09-24T12:16:16.738Z,1999.90
2018-09-24T12:18:50.059Z,1999.90
2018-09-24T12:21:23.395Z,1999.90
2018-09-24T12:23:56.913Z,1999.90
2018-09-24T12:26:30.251Z,1999.90
2018-09-24T12:29:03.703Z,1999.90
2018-09-24T12:31:37.190Z,1999.90
2018-09-24T12:34:10.702Z,1999.90
2018-09-24T12:36:44.262Z,1999.90
2018-09-24T12:39:17.667Z,1934.00
2018-09-24T12:41:51.100Z,689.03
2018-09-24T12:44:24.410Z,106.13
2018-09-24T12:46:57.755Z,293.57
2018-09-24T12:49:31.174Z,173.27
2018-09-24T12:52:04.491Z,412.53
2018-09-24T12:54:37.958Z,616.70
2018-09-24T12:57:11.325Z,461.30
2018-09-24T12:59:44.866Z,1402.37
2018-09-24T13:02:18.324Z,60.30
2018-09-24T13:04:51.697Z,293.57
2018-09-24T13:07:25.178Z,252.73
2018-09-24T13:09:58.479Z,88.60
2018-09-24T13:12:31.992Z,443.90
2018-09-24T13:15:05.467Z,220.93
2018-09-24T13:17:38.922Z,1148.37
2018-09-24T13:20:12.527Z,1551.83
2018-09-24T13:22:45.951Z,1047.17
2018-09-24T13:25:19.429Z,1105.33
2018-09-24T13:27:52.875Z,1074.00
2018-09-24T13:30:26.431Z,436.63
2018-09-24T13:32:59.758Z,679.57
2018-09-24T13:35:33.241Z,561.23
2018-09-24T13:38:06.618Z,378.40
2018-09-24T13:40:40.115Z,76.90
2018-09-24T13:43:13.474Z,132.57
2018-09-24T13:45:46.809Z,328.67
2018-09-24T13:48:20.154Z,674.13
2018-09-24T13:50:53.519Z,290.00
2018-09-24T13:53:27.004Z,74.10
2018-09-24T13:56:00.491Z,454.70
2018-09-24T13:58:33.822Z,107.90
2018-09-24T14:01:07.302Z,137.70
2018-09-24T14:03:40.794Z,75.83
2018-09-24T14:06:14.298Z,79.00
2018-09-24T14:08:47.757Z,99.13
2018-09-24T14:11:21.126Z,65.30
2018-09-24T14:13:54.495Z,75.27
2018-09-24T14:16:28.023Z,270.03
2018-09-24T14:19:01.490Z,67.73
2018-09-24T14:21:34.796Z,61.73
2018-09-24T14:24:08.140Z,80.00
2018-09-24T14:26:41.534Z,68.43
2018-09-24T14:29:14.838Z,66.03
2018-09-24T14:31:48.324Z,91.73
2018-09-24T14:34:21.774Z,77.00
2018-09-24T14:36:55.171Z,110.50
2018-09-24T14:39:28.703Z,66.83
2018-09-24T14:42:02.071Z,64.47
2018-09-24T14:44:35.562Z,96.23
2018-09-24T14:47:09.119Z,79.93
2018-09-24T14:49:42.566Z,67.47
2018-09-24T14:52:16.147Z,62.30
2018-09-24T14:54:49.498Z,80.23
2018-09-24T14:57:22.893Z,77.60
2018-09-24T14:59:56.358Z,141.47
2018-09-24T15:02:29.627Z,63.80
2018-09-24T15:05:03.079Z,99.47
2018-09-24T15:07:36.610Z,67.00
2018-09-24T15:10:10.066Z,63.03
2018-09-24T15:12:43.442Z,83.13
2018-09-24T15:15:16.878Z,73.63
2018-09-24T15:17:50.254Z,108.80
2018-09-24T15:20:23.734Z,72.07
2018-09-24T15:22:57.072Z,65.47
2018-09-24T15:25:30.449Z,61.63
2018-09-24T15:28:03.790Z,96.83
2018-09-24T15:30:37.223Z,74.83
2018-09-24T15:33:10.766Z,163.27
2018-09-24T15:35:44.470Z,89.40
2018-09-24T15:38:17.970Z,61.57
2018-09-24T15:40:52.755Z,70.20
2018-09-24T15:43:28.425Z,64.87
2018-09-24T15:46:02.133Z,60.27
2018-09-24T15:48:35.409Z,62.30
2018-09-24T15:51:08.746Z,72.33
2018-09-24T15:53:44.574Z,63.73
2018-09-24T15:56:18.262Z,109.03
2018-09-24T15:58:51.806Z,1999.90
2018-09-24T16:01:25.365Z,645.10
2018-09-24T16:03:58.962Z,569.17
2018-09-24T16:06:32.425Z,104.43
2018-09-24T16:09:05.959Z,809.37
2018-09-24T16:11:39.366Z,90.07
2018-09-24T16:14:12.683Z,60.97
2018-09-24T16:16:48.715Z,64.27
2018-09-24T16:19:22.335Z,69.57
2018-09-24T16:21:55.670Z,61.47
2018-09-24T16:24:29.173Z,62.73
2018-09-24T16:27:02.651Z,60.60
2018-09-24T16:29:35.968Z,60.80
2018-09-24T16:32:09.335Z,60.87
2018-09-24T16:34:42.695Z,59.00
2018-09-24T16:37:16.164Z,60.93
2018-09-24T16:39:49.500Z,61.33
2018-09-24T16:42:22.941Z,61.10
2018-09-24T16:44:56.232Z,64.07
2018-09-24T16:47:29.577Z,502.80
2018-09-24T16:50:03.095Z,491.70
2018-09-24T16:52:36.541Z,458.13
2018-09-24T16:55:10.023Z,218.23
2018-09-24T16:57:43.508Z,173.93
2018-09-24T17:00:16.871Z,1632.37
2018-09-24T17:02:50.222Z,1998.80
2018-09-24T17:05:23.570Z,386.70
2018-09-24T17:07:56.974Z,864.03
2018-09-24T17:10:30.308Z,452.77
2018-09-24T17:13:03.761Z,838.33
2018-09-24T17:15:37.274Z,434.63
2018-09-24T17:18:10.585Z,133.73
2018-09-24T17:20:50.809Z,93.43
2018-09-24T17:23:24.244Z,311.27
2018-09-24T17:25:57.710Z,145.80
2018-09-24T17:28:31.104Z,938.30
2018-09-24T17:31:04.487Z,106.03
2018-09-24T17:33:37.983Z,1415.47
2018-09-24T17:36:11.347Z,1619.17
2018-09-24T17:38:44.688Z,1396.60
2018-09-24T17:41:18.157Z,1215.70
2018-09-24T17:43:51.579Z,1180.43
2018-09-24T17:46:25.043Z,1686.63
2018-09-24T17:48:58.467Z,1273.33
2018-09-24T17:51:32.106Z,1089.17
2018-09-24T17:54:05.415Z,1483.93
2018-09-24T17:56:38.926Z,1420.00
2018-09-24T17:59:12.150Z,613.77
2018-09-24T18:01:45.606Z,406.73
2018-09-24T18:04:19.082Z,1242.20
2018-09-24T18:06:52.550Z,1240.30
2018-09-24T18:09:26.081Z,567.70
2018-09-24T18:11:59.504Z,536.83
2018-09-24T18:14:32.935Z,487.40
2018-09-24T18:17:06.414Z,437.87
2018-09-24T18:19:39.849Z,356.57
2018-09-24T18:22:13.198Z,230.87
2018-09-24T18:24:46.730Z,285.07
2018-09-24T18:27:20.181Z,307.97
2018-09-24T18:29:53.688Z,460.67
2018-09-24T18:32:27.071Z,665.90
2018-09-24T18:35:00.490Z,603.43
2018-09-24T18:37:34.047Z,629.83
2018-09-24T18:40:07.527Z,606.83
2018-09-24T18:42:41.087Z,581.13
2018-09-24T18:45:14.611Z,841.83
2018-09-24T18:47:48.165Z,1075.73
2018-09-24T18:50:21.495Z,1155.20
2018-09-24T18:52:55.047Z,1486.80
2018-09-24T18:55:28.573Z,1817.07
2018-09-24T18:58:01.916Z,1999.90
2018-09-24T19:00:35.454Z,1999.90
2018-09-24T19:03:08.819Z,1999.90
2018-09-24T19:05:42.316Z,819.83
2018-09-24T19:08:15.681Z,1057.70
2018-09-24T19:10:49.139Z,896.40
2018-09-24T19:13:22.592Z,840.63
2018-09-24T19:15:56.194Z,242.63
2018-09-24T19:18:30.701Z,855.57
2018-09-24T19:21:04.092Z,459.47
2018-09-24T19:23:37.567Z,595.73
2018-09-24T19:26:11.308Z,316.37
2018-09-24T19:28:45.782Z,1102.30
2018-09-24T19:31:19.093Z,393.67
2018-09-24T19:33:52.426Z,188.10
2018-09-24T19:36:25.840Z,628.03
2018-09-24T19:39:01.428Z,1994.80
2018-09-24T19:41:34.982Z,60.10
2018-09-24T19:44:08.410Z,71.53
2018-09-24T19:46:41.978Z,113.37
2018-09-24T19:49:15.526Z,70.43
2018-09-24T19:51:49.856Z,63.00
2018-09-24T19:54:23.346Z,60.43
2018-09-24T19:56:56.691Z,58.13
2018-09-24T19:59:32.103Z,56.57
2018-09-24T20:02:05.422Z,55.97
2018-09-24T20:04:38.909Z,62.33
2018-09-24T20:07:12.182Z,89.53
2018-09-24T20:09:45.543Z,97.77
2018-09-24T20:12:19.011Z,86.93
2018-09-24T20:14:52.393Z,86.93
2018-09-24T20:17:27.007Z,138.03
2018-09-24T20:20:00.566Z,95.30
2018-09-24T20:22:34.058Z,166.53
2018-09-24T20:25:07.372Z,222.37
2018-09-24T20:27:41.003Z,172.20
2018-09-24T20:30:14.492Z,255.97
2018-09-24T20:32:47.937Z,390.90
2018-09-24T20:35:21.489Z,339.20
2018-09-24T20:37:54.803Z,589.37
2018-09-24T20:40:28.181Z,638.77
2018-09-24T20:43:01.826Z,445.57
2018-09-24T20:45:35.439Z,539.80
2018-09-24T20:48:08.973Z,1419.47
2018-09-24T20:50:42.560Z,587.27
2018-09-24T20:53:16.159Z,847.40
2018-09-24T20:55:49.807Z,450.10
2018-09-24T20:58:23.347Z,1607.23
2018-09-24T21:00:57.974Z,631.93
2018-09-24T21:03:31.547Z,890.67
2018-09-24T21:06:05.163Z,1789.07
2018-09-24T21:08:38.505Z,530.30
2018-09-24T21:11:12.032Z,1770.30
2018-09-24T21:13:45.580Z,1523.90
2018-09-24T21:16:19.093Z,672.03
2018-09-24T21:18:52.587Z,865.03
2018-09-24T21:21:26.152Z,979.83
2018-09-24T21:23:59.578Z,1999.90
2018-09-24T21:26:33.003Z,1999.90
2018-09-24T21:29:08.576Z,753.80
2018-09-24T21:31:42.140Z,1495.67
2018-09-24T21:34:15.515Z,1620.37
2018-09-24T21:36:49.062Z,923.57
2018-09-24T21:39:22.585Z,542.57
2018-09-24T21:41:56.163Z,941.87
2018-09-24T21:44:29.648Z,585.47
2018-09-24T21:47:03.313Z,1707.60
2018-09-24T21:49:36.718Z,1892.77
2018-09-24T21:52:10.256Z,1781.13
2018-09-24T21:54:43.700Z,1713.97
2018-09-24T21:57:17.125Z,1845.83
2018-09-24T21:59:50.534Z,792.07
2018-09-24T22:02:23.997Z,661.17
2018-09-24T22:04:57.534Z,593.30
2018-09-24T22:07:31.030Z,750.63
2018-09-24T22:10:04.468Z,582.77
2018-09-24T22:12:37.850Z,1531.40
2018-09-24T22:15:11.375Z,1722.90
2018-09-24T22:17:44.759Z,848.37
2018-09-24T22:20:18.211Z,805.07
2018-09-24T22:22:51.728Z,735.90
2018-09-24T22:25:25.259Z,1889.13
2018-09-24T22:27:58.731Z,1795.97
2018-09-24T22:30:32.215Z,802.03
2018-09-24T22:33:05.642Z,546.13
2018-09-24T22:35:39.002Z,670.63
2018-09-24T22:38:12.500Z,670.70
2018-09-24T22:40:46.106Z,496.50
2018-09-24T22:43:19.598Z,640.97
2018-09-24T22:45:52.999Z,732.17
2018-09-24T22:48:26.482Z,1302.20
2018-09-24T22:50:59.982Z,893.07
2018-09-24T22:53:33.445Z,812.70
2018-09-24T22:56:06.895Z,799.67
2018-09-24T22:58:40.238Z,668.30
2018-09-24T23:01:13.515Z,1176.83
2018-09-24T23:03:46.896Z,494.80
2018-09-24T23:06:20.461Z,487.20
2018-09-24T23:08:54.038Z,711.17
2018-09-24T23:11:27.601Z,1823.03
2018-09-24T23:14:01.124Z,1961.03
2018-09-24T23:16:34.567Z,1893.57
2018-09-24T23:19:08.092Z,701.63
2018-09-24T23:21:41.632Z,748.57
2018-09-24T23:24:15.052Z,1156.63
2018-09-24T23:26:48.559Z,905.97
2018-09-24T23:29:22.082Z,854.97
2018-09-24T23:31:55.523Z,1951.47
2018-09-24T23:34:29.015Z,1994.93
2018-09-24T23:37:02.583Z,679.83
2018-09-24T23:39:36.043Z,1895.00
2018-09-24T23:42:09.538Z,1860.80
2018-09-24T23:44:42.930Z,1999.90
2018-09-24T23:47:16.446Z,1999.90
2018-09-24T23:49:49.914Z,1078.43
2018-09-24T23:52:23.209Z,756.30
2018-09-24T23:54:56.651Z,686.73
2018-09-24T23:57:30.152Z,1782.77
